The massive Bounty Hunters festival returns to GGPoker until 29 July with a new stage featuring $50,000,000 guaranteed.

The schedule features a host of Hold'em and Omaha knockout tournaments with buy-ins starting at just $10.

Notable tournaments:

Tournament nameBuy-inGTDFinal DayStart (GMT)
Mystery Bounty Main Event$108$4,000,00029 июля18:30
Mystery Bounty Mini Main$25$2,000,00015 июля18:30
Global MILLION$$50$1,000,00021 июля20:30

Satellites from as low as $1 will help you save on tickets.

Daily Leaderboard

The Bounty King Leaderboard has a daily leaderboard of $40,000: one point per knockout is added to the leaderboard, and the scoring period is from 6:00am to 5:59pm GMT.

Schedule

DateStart (GMT)Tournament nameBuy-inGTD
Sun, 7 July12:30$215 Sunday Bounty Blast-Off$215$35,000
Sun, 7 July12:30$25 Sunday Bounty Blast-Off$25$100,000
Sun, 7 July13:30$10.80 Sunday Bounty Seven-Max$10.80$50,000
Sun, 7 July13:30$108 Sunday Bounty Seven-Max$108$70,000
Sun, 7 July14:05$10 Speed Racer POWER HOUR [10 BB]$10$12,500
Sun, 7 July14:15$25 Speed Racer POWER HOUR [10 BB]$25$12,500
Sun, 7 July14:25$50 Speed Racer POWER HOUR [10 BB]$50$12,500
Sun, 7 July14:30$840 Sunday Bounty Warm-Up HR$840$75,000
Sun, 7 July14:30$88 Sunday Bounty Warm-Up$88$175,000
Sun, 7 July14:35$100 Speed Racer POWER HOUR [10 BB]$100$10,000
Sun, 7 July14:45$200 Speed Racer POWER HOUR [10 BB]$200$12,500
Sun, 7 July15:30$44 Sunday Bounty Forty Stack$44$200,000
Sun, 7 July16:30$525 Bounty Hunters HR Main Event, $1M GTD$525$1,000,000
Sun, 7 July16:30$54 Bounty Hunters Sunday Main Event$54$500,000
Sun, 7 July17:30$215 Sunday Bounty Big Game$215$350,000
Sun, 7 July17:30$21.60 Sunday Bounty Big Game$21.60$200,000
Sun, 7 July17:40$215 Sunday Omaholic Big Game$215$50,000
Sun, 7 July19:00$1,050 Sunday HR Main Event [Bounty Edition]$1,050$300,000
Sun, 7 July19:30$320 GGMasters Bounty Special Edition$320$400,000
Sun, 7 July19:30$32 Sunday Bounty King$32$175,000
Sun, 7 July19:40$1,050 Sunday Omaholic Bounty HR$1,050$50,000
Sun, 7 July19:40$150 Sunday Omaholic Bounty Main$150$100,000
Sun, 7 July20:00$108 Sunday Showdown [Mystery Bounty]$108$400,000
Sun, 7 July20:00$15 Mini Showdown [Mystery Bounty]$15$250,000
Sun, 7 July21:00$1,050 Sunday HEATER HR [Bounty Turbo]$1,050$75,000
Sun, 7 July21:00$215 Sunday HEATER [Bounty Turbo]$215$125,000
Sun, 7 July21:00$25 Sunday Mini HEATER [Bounty Turbo]$25$100,000
Sun, 7 July22:30$77 LUCKY SEVENS [Bounty Turbo]$77$125,000
Sun, 7 July23:30$215 Sunday Last Call [Bounty Hyper]$215$60,000
Mon, 8 July0:00$88 Midnight Madness [Bounty Hyper]$88$40,000
Mon, 8 July1:05$10 Speed Racer POWER HOUR [10 BB]$10$5,000
Mon, 8 July1:15$25 Speed Racer POWER HOUR [10 BB]$25$7,000
Mon, 8 July1:25$50 Speed Racer POWER HOUR [10 BB]$50$6,000
Mon, 8 July1:35$100 Speed Racer POWER HOUR [10 BB]$100$7,000
Mon, 8 July1:45$200 Speed Racer POWER HOUR [10 BB]$200$7,000
Mon, 8 July12:30$25 Bounty Blast-Off$25$50,000
Mon, 8 July13:30$10.80 Monday Hangover [Variable Levels]$10.80$30,000
Mon, 8 July14:05$10 Speed Racer POWER HOUR [10 BB]$10$12,500
Mon, 8 July14:15$25 Speed Racer POWER HOUR [10 BB]$25$12,500
Mon, 8 July14:25$50 Speed Racer POWER HOUR [10 BB]$50$12,500
Mon, 8 July14:30$88 Bounty Warm-Up$88$60,000
Mon, 8 July14:35$100 Speed Racer POWER HOUR [10 BB]$100$10,000
Mon, 8 July14:45$200 Speed Racer POWER HOUR [10 BB]$200$12,500
Mon, 8 July15:30$44 Bounty Forty Stack$44$80,000
Mon, 8 July16:30$525 Bounty Hunters HR [6-Max]$525$300,000
Mon, 8 July16:30$54 Bounty Hunters Daily Main [6-Max]$54$250,000
Mon, 8 July17:30$215 Bounty Big Game$215$150,000
Mon, 8 July17:30$25 Bounty Big Game$25$100,000
Mon, 8 July18:00$1,050 Monday Monster Stack HR [Bounty Edition]$1,050$200,000
Mon, 8 July18:00$150 Monday Monster Stack [Bounty Edition]$150$150,000
Mon, 8 July18:00$15 Mini Monday Monster Stack [Bounty Edition]$15$75,000
Mon, 8 July19:30$32 Bounty King$32$70,000
Mon, 8 July19:40$525 Omaholic Bounty Fifty Stack$525$12,500
Mon, 8 July19:40$54 Omaholic Bounty Fifty Stack$54$15,000
Mon, 8 July21:00$215 Daily HEATER [Bounty Turbo]$215$50,000
Mon, 8 July22:00$66 SUPER SIX [Bounty Turbo]$66$40,000
Mon, 8 July22:30$25 HYPER 5-MAX$25$25,000
Tue, 9 July0:00$88 Midnight Madness [Bounty Hyper]$88$40,000
Tue, 9 July1:05$10 Speed Racer POWER HOUR [10 BB]$10$5,000
Tue, 9 July1:15$25 Speed Racer POWER HOUR [10 BB]$25$7,000
Tue, 9 July1:25$50 Speed Racer POWER HOUR [10 BB]$50$6,000
Tue, 9 July1:35$100 Speed Racer POWER HOUR [10 BB]$100$7,000
Tue, 9 July1:45$200 Speed Racer POWER HOUR [10 BB]$200$7,000
Tue, 9 July13:30$10.80 Bounty Hunters 6-Max$10.80$35,000
Tue, 9 July14:05$10 Speed Racer POWER HOUR [10 BB]$10$12,500
Tue, 9 July14:15$25 Speed Racer POWER HOUR [10 BB]$25$12,500
Tue, 9 July14:25$50 Speed Racer POWER HOUR [10 BB]$50$12,500
Tue, 9 July14:35$100 Speed Racer POWER HOUR [10 BB]$100$10,000
Tue, 9 July14:45$200 Speed Racer POWER HOUR [10 BB]$200$12,500
Tue, 9 July16:30$525 Bounty Hunters HR [Deepstack]$525$200,000
Tue, 9 July16:30$54 Bounty Hunters Daily Main [Deepstack]$54$250,000
Tue, 9 July18:00$1,050 Tuesday Classic HR [Bounty Edition]$1,050$150,000
Tue, 9 July18:00$150 Tuesday Classic [Bounty Edition]$150$200,000
Tue, 9 July18:00$15 Mini Tuesday Classic [Bounty Edition]$15$85,000
Wed, 10 July1:05$10 Speed Racer POWER HOUR [10 BB]$10$5,000
Wed, 10 July1:15$25 Speed Racer POWER HOUR [10 BB]$25$7,000
Wed, 10 July1:25$50 Speed Racer POWER HOUR [10 BB]$50$6,000
Wed, 10 July1:35$100 Speed Racer POWER HOUR [10 BB]$100$7,000
Wed, 10 July1:45$200 Speed Racer POWER HOUR [10 BB]$200$7,000
Wed, 10 July13:30$10.80 Bounty Hunters 6-Max$10.80$35,000
Wed, 10 July14:05$10 Speed Racer POWER HOUR [10 BB]$10$12,500
Wed, 10 July14:15$25 Speed Racer POWER HOUR [10 BB]$25$12,500
Wed, 10 July14:25$50 Speed Racer POWER HOUR [10 BB]$50$12,500
Wed, 10 July14:35$100 Speed Racer POWER HOUR [10 BB]$100$10,000
Wed, 10 July14:45$200 Speed Racer POWER HOUR [10 BB]$200$12,500
Wed, 10 July16:30$525 Bounty Hunters HR [Double Stack]$525$200,000
Wed, 10 July16:30$54 Bounty Hunters Daily Main [Double Stack]$54$250,000
Wed, 10 July18:00$1,050 Wednesday Wonderbox HR [Mystery Bounty]$1,050$200,000
Wed, 10 July18:00$150 Wednesday Wonderbox [Mystery Bounty]$150$400,000
Wed, 10 July18:00$15 Mini Wednesday Wonderbox [Mystery Bounty]$15$200,000
Thu, 11 July1:05$10 Speed Racer POWER HOUR [10 BB]$10$5,000
Thu, 11 July1:15$25 Speed Racer POWER HOUR [10 BB]$25$7,000
Thu, 11 July1:25$50 Speed Racer POWER HOUR [10 BB]$50$6,000
Thu, 11 July1:35$100 Speed Racer POWER HOUR [10 BB]$100$7,000
Thu, 11 July1:45$200 Speed Racer POWER HOUR [10 BB]$200$7,000
Thu, 11 July13:30$10.80 Bounty Hunters 6-Max$10.80$35,000
Thu, 11 July14:05$10 Speed Racer POWER HOUR [10 BB]$10$12,500
Thu, 11 July14:15$25 Speed Racer POWER HOUR [10 BB]$25$12,500
Thu, 11 July14:25$50 Speed Racer POWER HOUR [10 BB]$50$12,500
Thu, 11 July14:35$100 Speed Racer POWER HOUR [10 BB]$100$10,000
Thu, 11 July14:45$200 Speed Racer POWER HOUR [10 BB]$200$12,500
Thu, 11 July16:30$525 Bounty Hunters HR [Classic]$525$300,000
Thu, 11 July16:30$54 Bounty Hunters Daily Main [Classic]$54$250,000
Thu, 11 July18:00$1,050 Thursday Throwdown HR$1,050$300,000
Thu, 11 July18:00$150 Thursday Throwdown$150$200,000
Thu, 11 July18:00$15 Mini Thursday Throwdown$15$85,000
Fri, 12 July1:05$10 Speed Racer POWER HOUR [10 BB]$10$5,000
Fri, 12 July1:15$25 Speed Racer POWER HOUR [10 BB]$25$7,000
Fri, 12 July1:25$50 Speed Racer POWER HOUR [10 BB]$50$6,000
Fri, 12 July1:35$100 Speed Racer POWER HOUR [10 BB]$100$7,000
Fri, 12 July1:45$200 Speed Racer POWER HOUR [10 BB]$200$7,000
Fri, 12 July13:30$10.80 Furious Friday 5-Max$10.80$30,000
Fri, 12 July14:05$10 Speed Racer POWER HOUR [10 BB]$10$12,500
Fri, 12 July14:15$25 Speed Racer POWER HOUR [10 BB]$25$12,500
Fri, 12 July14:25$50 Speed Racer POWER HOUR [10 BB]$50$12,500
Fri, 12 July14:35$100 Speed Racer POWER HOUR [10 BB]$100$10,000
Fri, 12 July14:45$200 Speed Racer POWER HOUR [10 BB]$200$12,500
Fri, 12 July16:30$525 Bounty Hunters HR [Ultradeep Turbo]$525$100,000
Fri, 12 July16:30$54 Bounty Hunters Daily Main [Ultradeep Turbo]$54$150,000
Fri, 12 July18:00$1,050 Friday Night Fight HR [6-Max]$1,050$150,000
Fri, 12 July18:00$150 Friday Night Fight [6-Max]$150$125,000
Fri, 12 July18:00$15 Mini Friday Night Fight [6-Max]$15$75,000
Sat, 13 July1:05$10 Speed Racer POWER HOUR [10 BB]$10$5,000
Sat, 13 July1:15$25 Speed Racer POWER HOUR [10 BB]$25$7,000
Sat, 13 July1:25$50 Speed Racer POWER HOUR [10 BB]$50$6,000
Sat, 13 July1:35$100 Speed Racer POWER HOUR [10 BB]$100$7,000
Sat, 13 July1:45$200 Speed Racer POWER HOUR [10 BB]$200$7,000
Sat, 13 July13:30$10.80 Saturday Showdown 7-Max$10.80$40,000
Sat, 13 July14:05$10 Speed Racer POWER HOUR [10 BB]$10$12,500
Sat, 13 July14:15$25 Speed Racer POWER HOUR [10 BB]$25$12,500
Sat, 13 July14:25$50 Speed Racer POWER HOUR [10 BB]$50$12,500
Sat, 13 July14:35$100 Speed Racer POWER HOUR [10 BB]$100$10,000
Sat, 13 July14:45$200 Speed Racer POWER HOUR [10 BB]$200$12,500
Sat, 13 July16:30$525 Bounty Hunters HR [Big Bounties]$525$200,000
Sat, 13 July16:30$54 Bounty Hunters Daily Main [Big Bounties]$54$250,000
Sat, 13 July18:00$1,050 Saturday Secret KO HR [Mystery Bounty]$1,050$250,000
Sat, 13 July18:00$150 Saturday Secret KO [Mystery Bounty]$150$500,000
Sat, 13 July18:00$15 Mini Saturday Secret KO [Mystery Bounty]$15$250,000
Sun, 14 July1:05$10 Speed Racer POWER HOUR [10 BB]$10$5,000
Sun, 14 July1:15$25 Speed Racer POWER HOUR [10 BB]$25$7,000
Sun, 14 July1:25$50 Speed Racer POWER HOUR [10 BB]$50$6,000
Sun, 14 July1:35$100 Speed Racer POWER HOUR [10 BB]$100$7,000
Sun, 14 July1:45$200 Speed Racer POWER HOUR [10 BB]$200$7,000
Sun, 14 July12:30$215 Sunday Bounty Blast-Off$215$35,000
Sun, 14 July12:30$25 Sunday Bounty Blast-Off$25$100,000
Sun, 14 July13:30$10.80 Sunday Bounty Seven-Max$10.80$50,000
Sun, 14 July13:30$108 Sunday Bounty Seven-Max$108$70,000
Sun, 14 July14:05$10 Speed Racer POWER HOUR [10 BB]$10$12,500
Sun, 14 July14:15$25 Speed Racer POWER HOUR [10 BB]$25$12,500
Sun, 14 July14:25$50 Speed Racer POWER HOUR [10 BB]$50$12,500
Sun, 14 July14:30$840 Sunday Bounty Warm-Up HR$840$75,000
Sun, 14 July14:30$88 Sunday Bounty Warm-Up$88$175,000
Sun, 14 July14:35$100 Speed Racer POWER HOUR [10 BB]$100$10,000
Sun, 14 July14:45$200 Speed Racer POWER HOUR [10 BB]$200$12,500
Sun, 14 July15:30$44 Sunday Bounty Forty Stack$44$200,000
Sun, 14 July16:30$525 Bounty Hunters HR Main Event, $1M GTD$525$1,000,000
Sun, 14 July16:30$54 Bounty Hunters Sunday Main Event$54$500,000
Sun, 14 July17:30$215 Sunday Bounty Big Game$215$350,000
Sun, 14 July17:30$21.60 Sunday Bounty Big Game$21.60$200,000
Sun, 14 July17:40$215 Sunday Omaholic Big Game$215$50,000
Sun, 14 July19:00$1,050 Sunday HR Main Event [Bounty Edition]$1,050$300,000
Sun, 14 July19:30$320 GGMasters Bounty Special Edition$320$400,000
Sun, 14 July19:30$32 Sunday Bounty King$32$175,000
Sun, 14 July19:40$1,050 Sunday Omaholic Bounty HR$1,050$50,000
Sun, 14 July19:40$150 Sunday Omaholic Bounty Main$150$100,000
Sun, 14 July20:00$108 Sunday Showdown [Mystery Bounty]$108$400,000
Sun, 14 July20:00$15 Mini Showdown [Mystery Bounty]$15$250,000
Sun, 14 July21:00$1,050 Sunday HEATER HR [Bounty Turbo]$1,050$75,000
Sun, 14 July21:00$215 Sunday HEATER [Bounty Turbo]$215$125,000
Sun, 14 July21:00$25 Sunday Mini HEATER [Bounty Turbo]$25$100,000
Sun, 14 July22:30$77 LUCKY SEVENS [Bounty Turbo]$77$125,000
Sun, 14 July23:30$215 Sunday Last Call [Bounty Hyper]$215$60,000
Mon, 15 July0:00$88 Midnight Madness [Bounty Hyper]$88$40,000
Mon, 15 July1:05$10 Speed Racer POWER HOUR [10 BB]$10$5,000
Mon, 15 July1:15$25 Speed Racer POWER HOUR [10 BB]$25$7,000
Mon, 15 July1:25$50 Speed Racer POWER HOUR [10 BB]$50$6,000
Mon, 15 July1:35$100 Speed Racer POWER HOUR [10 BB]$100$7,000
Mon, 15 July1:45$200 Speed Racer POWER HOUR [10 BB]$200$7,000
Mon, 15 July12:30$25 Bounty Blast-Off$25$50,000
Mon, 15 July13:30$10.80 Monday Hangover [Variable Levels]$10.80$30,000
Mon, 15 July14:05$10 Speed Racer POWER HOUR [10 BB]$10$12,500
Mon, 15 July14:15$25 Speed Racer POWER HOUR [10 BB]$25$12,500
Mon, 15 July14:25$50 Speed Racer POWER HOUR [10 BB]$50$12,500
Mon, 15 July14:30$88 Bounty Warm-Up$88$60,000
Mon, 15 July14:35$100 Speed Racer POWER HOUR [10 BB]$100$10,000
Mon, 15 July14:45$200 Speed Racer POWER HOUR [10 BB]$200$12,500
Mon, 15 July15:30$44 Bounty Forty Stack$44$80,000
Mon, 15 July16:30$525 Bounty Hunters HR [6-Max]$525$300,000
Mon, 15 July16:30$54 Bounty Hunters Daily Main [6-Max]$54$250,000
Mon, 15 July17:30$215 Bounty Big Game$215$150,000
Mon, 15 July17:30$25 Bounty Big Game$25$100,000
Mon, 15 July18:00$1,050 Monday Monster Stack HR [Bounty Edition]$1,050$200,000
Mon, 15 July18:00$150 Monday Monster Stack [Bounty Edition]$150$150,000
Mon, 15 July18:00$15 Mini Monday Monster Stack [Bounty Edition]$15$75,000
Mon, 15 July19:30$32 Bounty King$32$70,000
Mon, 15 July19:40$525 Omaholic Bounty Fifty Stack$525$12,500
Mon, 15 July19:40$54 Omaholic Bounty Fifty Stack$54$15,000
Mon, 15 July21:00$215 Daily HEATER [Bounty Turbo]$215$50,000
Mon, 15 July22:00$66 SUPER SIX [Bounty Turbo]$66$40,000
Mon, 15 July22:30$25 HYPER 5-MAX$25$25,000
Tue, 16 July0:00$88 Midnight Madness [Bounty Hyper]$88$40,000
Tue, 16 July1:05$10 Speed Racer POWER HOUR [10 BB]$10$5,000
Tue, 16 July1:15$25 Speed Racer POWER HOUR [10 BB]$25$7,000
Tue, 16 July1:25$50 Speed Racer POWER HOUR [10 BB]$50$6,000
Tue, 16 July1:35$100 Speed Racer POWER HOUR [10 BB]$100$7,000
Tue, 16 July1:45$200 Speed Racer POWER HOUR [10 BB]$200$7,000
Tue, 16 July13:30$10.80 Bounty Hunters 6-Max$10.80$35,000
Tue, 16 July14:05$10 Speed Racer POWER HOUR [10 BB]$10$12,500
Tue, 16 July14:15$25 Speed Racer POWER HOUR [10 BB]$25$12,500
Tue, 16 July14:25$50 Speed Racer POWER HOUR [10 BB]$50$12,500
Tue, 16 July14:35$100 Speed Racer POWER HOUR [10 BB]$100$10,000
Tue, 16 July14:45$200 Speed Racer POWER HOUR [10 BB]$200$12,500
Tue, 16 July16:30$525 Bounty Hunters HR [Deepstack]$525$200,000
Tue, 16 July16:30$54 Bounty Hunters Daily Main [Deepstack]$54$250,000
Tue, 16 July18:00$1,050 Tuesday Classic HR [Bounty Edition]$1,050$150,000
Tue, 16 July18:00$150 Tuesday Classic [Bounty Edition]$150$200,000
Tue, 16 July18:00$15 Mini Tuesday Classic [Bounty Edition]$15$85,000
Wed, 17 July1:05$10 Speed Racer POWER HOUR [10 BB]$10$5,000
Wed, 17 July1:15$25 Speed Racer POWER HOUR [10 BB]$25$7,000
Wed, 17 July1:25$50 Speed Racer POWER HOUR [10 BB]$50$6,000
Wed, 17 July1:35$100 Speed Racer POWER HOUR [10 BB]$100$7,000
Wed, 17 July1:45$200 Speed Racer POWER HOUR [10 BB]$200$7,000
Wed, 17 July13:30$10.80 Bounty Hunters 6-Max$10.80$35,000
Wed, 17 July14:05$10 Speed Racer POWER HOUR [10 BB]$10$12,500
Wed, 17 July14:15$25 Speed Racer POWER HOUR [10 BB]$25$12,500
Wed, 17 July14:25$50 Speed Racer POWER HOUR [10 BB]$50$12,500
Wed, 17 July14:35$100 Speed Racer POWER HOUR [10 BB]$100$10,000
Wed, 17 July14:45$200 Speed Racer POWER HOUR [10 BB]$200$12,500
Wed, 17 July16:30$525 Bounty Hunters HR [Double Stack]$525$200,000
Wed, 17 July16:30$54 Bounty Hunters Daily Main [Double Stack]$54$250,000
Wed, 17 July18:00$1,050 Wednesday Wonderbox HR [Mystery Bounty]$1,050$200,000
Wed, 17 July18:00$150 Wednesday Wonderbox [Mystery Bounty]$150$400,000
Wed, 17 July18:00$15 Mini Wednesday Wonderbox [Mystery Bounty]$15$200,000
Thu, 18 July1:05$10 Speed Racer POWER HOUR [10 BB]$10$5,000
Thu, 18 July1:15$25 Speed Racer POWER HOUR [10 BB]$25$7,000
Thu, 18 July1:25$50 Speed Racer POWER HOUR [10 BB]$50$6,000
Thu, 18 July1:35$100 Speed Racer POWER HOUR [10 BB]$100$7,000
Thu, 18 July1:45$200 Speed Racer POWER HOUR [10 BB]$200$7,000
Thu, 18 July13:30$10.80 Bounty Hunters 6-Max$10.80$35,000
Thu, 18 July14:05$10 Speed Racer POWER HOUR [10 BB]$10$12,500
Thu, 18 July14:15$25 Speed Racer POWER HOUR [10 BB]$25$12,500
Thu, 18 July14:25$50 Speed Racer POWER HOUR [10 BB]$50$12,500
Thu, 18 July14:35$100 Speed Racer POWER HOUR [10 BB]$100$10,000
Thu, 18 July14:45$200 Speed Racer POWER HOUR [10 BB]$200$12,500
Thu, 18 July16:30$525 Bounty Hunters HR [Classic]$525$300,000
Thu, 18 July16:30$54 Bounty Hunters Daily Main [Classic]$54$250,000
Thu, 18 July18:00$1,050 Thursday Throwdown HR$1,050$300,000
Thu, 18 July18:00$150 Thursday Throwdown$150$200,000
Thu, 18 July18:00$15 Mini Thursday Throwdown$15$85,000
Fri, 19 July1:05$10 Speed Racer POWER HOUR [10 BB]$10$5,000
Fri, 19 July1:15$25 Speed Racer POWER HOUR [10 BB]$25$7,000
Fri, 19 July1:25$50 Speed Racer POWER HOUR [10 BB]$50$6,000
Fri, 19 July1:35$100 Speed Racer POWER HOUR [10 BB]$100$7,000
Fri, 19 July1:45$200 Speed Racer POWER HOUR [10 BB]$200$7,000
Fri, 19 July13:30$10.80 Furious Friday 5-Max$10.80$30,000
Fri, 19 July14:05$10 Speed Racer POWER HOUR [10 BB]$10$12,500
Fri, 19 July14:15$25 Speed Racer POWER HOUR [10 BB]$25$12,500
Fri, 19 July14:25$50 Speed Racer POWER HOUR [10 BB]$50$12,500
Fri, 19 July14:35$100 Speed Racer POWER HOUR [10 BB]$100$10,000
Fri, 19 July14:45$200 Speed Racer POWER HOUR [10 BB]$200$12,500
Fri, 19 July16:30$525 Bounty Hunters HR [Ultradeep Turbo]$525$100,000
Fri, 19 July16:30$54 Bounty Hunters Daily Main [Ultradeep Turbo]$54$150,000
Fri, 19 July18:00$1,050 Friday Night Fight HR [6-Max]$1,050$150,000
Fri, 19 July18:00$150 Friday Night Fight [6-Max]$150$125,000
Fri, 19 July18:00$15 Mini Friday Night Fight [6-Max]$15$75,000
Sat, 20 July1:05$10 Speed Racer POWER HOUR [10 BB]$10$5,000
Sat, 20 July1:15$25 Speed Racer POWER HOUR [10 BB]$25$7,000
Sat, 20 July1:25$50 Speed Racer POWER HOUR [10 BB]$50$6,000
Sat, 20 July1:35$100 Speed Racer POWER HOUR [10 BB]$100$7,000
Sat, 20 July1:45$200 Speed Racer POWER HOUR [10 BB]$200$7,000
Sat, 20 July13:30$10.80 Saturday Showdown 7-Max$10.80$40,000
Sat, 20 July14:05$10 Speed Racer POWER HOUR [10 BB]$10$12,500
Sat, 20 July14:15$25 Speed Racer POWER HOUR [10 BB]$25$12,500
Sat, 20 July14:25$50 Speed Racer POWER HOUR [10 BB]$50$12,500
Sat, 20 July14:35$100 Speed Racer POWER HOUR [10 BB]$100$10,000
Sat, 20 July14:45$200 Speed Racer POWER HOUR [10 BB]$200$12,500
Sat, 20 July16:30$525 Bounty Hunters HR [Big Bounties]$525$200,000
Sat, 20 July16:30$54 Bounty Hunters Daily Main [Big Bounties]$54$250,000
Sat, 20 July18:00$1,050 Saturday Secret KO HR [Mystery Bounty]$1,050$250,000
Sat, 20 July18:00$150 Saturday Secret KO [Mystery Bounty]$150$500,000
Sat, 20 July18:00$15 Mini Saturday Secret KO [Mystery Bounty]$15$250,000
Sun, 21 July1:05$10 Speed Racer POWER HOUR [10 BB]$10$5,000
Sun, 21 July1:15$25 Speed Racer POWER HOUR [10 BB]$25$7,000
Sun, 21 July1:25$50 Speed Racer POWER HOUR [10 BB]$50$6,000
Sun, 21 July1:35$100 Speed Racer POWER HOUR [10 BB]$100$7,000
Sun, 21 July1:45$200 Speed Racer POWER HOUR [10 BB]$200$7,000
Sun, 21 July12:30$215 Sunday Bounty Blast-Off$215$35,000
Sun, 21 July12:30$25 Sunday Bounty Blast-Off$25$100,000
Sun, 21 July13:30$10.80 Sunday Bounty Seven-Max$10.80$50,000
Sun, 21 July13:30$108 Sunday Bounty Seven-Max$108$70,000
Sun, 21 July14:05$10 Speed Racer POWER HOUR [10 BB]$10$12,500
Sun, 21 July14:15$25 Speed Racer POWER HOUR [10 BB]$25$12,500
Sun, 21 July14:25$50 Speed Racer POWER HOUR [10 BB]$50$12,500
Sun, 21 July14:30$840 Sunday Bounty Warm-Up HR$840$75,000
Sun, 21 July14:30$88 Sunday Bounty Warm-Up$88$175,000
Sun, 21 July14:35$100 Speed Racer POWER HOUR [10 BB]$100$10,000
Sun, 21 July14:45$200 Speed Racer POWER HOUR [10 BB]$200$12,500
Sun, 21 July15:30$44 Sunday Bounty Forty Stack$44$200,000
Sun, 21 July16:30$525 Bounty Hunters HR Main Event, $1M GTD$525$1,000,000
Sun, 21 July16:30$54 Bounty Hunters Sunday Main Event$54$500,000
Sun, 21 July17:30$215 Sunday Bounty Big Game$215$350,000
Sun, 21 July17:30$21.60 Sunday Bounty Big Game$21.60$200,000
Sun, 21 July17:40$215 Sunday Omaholic Big Game$215$50,000
Sun, 21 July19:00$1,050 Sunday HR Main Event [Bounty Edition]$1,050$300,000
Sun, 21 July19:30$320 GGMasters Bounty Special Edition$320$400,000
Sun, 21 July19:30$32 Sunday Bounty King$32$175,000
Sun, 21 July19:40$1,050 Sunday Omaholic Bounty HR$1,050$50,000
Sun, 21 July19:40$150 Sunday Omaholic Bounty Main$150$100,000
Sun, 21 July20:00$108 Sunday Showdown [Mystery Bounty]$108$400,000
Sun, 21 July20:00$15 Mini Showdown [Mystery Bounty]$15$250,000
Sun, 21 July20:30Global MILLION$ Bounty Edition, $1M GTD [Final Stage]$50$1,000,000
Sun, 21 July21:00$1,050 Sunday HEATER HR [Bounty Turbo]$1,050$75,000
Sun, 21 July21:00$215 Sunday HEATER [Bounty Turbo]$215$125,000
Sun, 21 July21:00$25 Sunday Mini HEATER [Bounty Turbo]$25$100,000
Sun, 21 July22:30$77 LUCKY SEVENS [Bounty Turbo]$77$125,000
Sun, 21 July23:30$215 Sunday Last Call [Bounty Hyper]$215$60,000
Mon, 22 July0:00$88 Midnight Madness [Bounty Hyper]$88$40,000
Mon, 22 July1:05$10 Speed Racer POWER HOUR [10 BB]$10$5,000
Mon, 22 July1:15$25 Speed Racer POWER HOUR [10 BB]$25$7,000
Mon, 22 July1:25$50 Speed Racer POWER HOUR [10 BB]$50$6,000
Mon, 22 July1:35$100 Speed Racer POWER HOUR [10 BB]$100$7,000
Mon, 22 July1:45$200 Speed Racer POWER HOUR [10 BB]$200$7,000
Mon, 22 July12:30$25 Bounty Blast-Off$25$50,000
Mon, 22 July13:30$10.80 Monday Hangover [Variable Levels]$10.80$30,000
Mon, 22 July14:05$10 Speed Racer POWER HOUR [10 BB]$10$12,500
Mon, 22 July14:15$25 Speed Racer POWER HOUR [10 BB]$25$12,500
Mon, 22 July14:25$50 Speed Racer POWER HOUR [10 BB]$50$12,500
Mon, 22 July14:30$88 Bounty Warm-Up$88$60,000
Mon, 22 July14:35$100 Speed Racer POWER HOUR [10 BB]$100$10,000
Mon, 22 July14:45$200 Speed Racer POWER HOUR [10 BB]$200$12,500
Mon, 22 July15:30$44 Bounty Forty Stack$44$80,000
Mon, 22 July16:30$525 Bounty Hunters HR [6-Max]$525$300,000
Mon, 22 July16:30$54 Bounty Hunters Daily Main [6-Max]$54$250,000
Mon, 22 July17:30$215 Bounty Big Game$215$150,000
Mon, 22 July17:30$25 Bounty Big Game$25$100,000
Mon, 22 July18:00$1,050 Monday Monster Stack HR [Bounty Edition]$1,050$200,000
Mon, 22 July18:00$150 Monday Monster Stack [Bounty Edition]$150$150,000
Mon, 22 July18:00$15 Mini Monday Monster Stack [Bounty Edition]$15$75,000
Mon, 22 July19:30$32 Bounty King$32$70,000
Mon, 22 July19:40$525 Omaholic Bounty Fifty Stack$525$12,500
Mon, 22 July19:40$54 Omaholic Bounty Fifty Stack$54$15,000
Mon, 22 July21:00$215 Daily HEATER [Bounty Turbo]$215$50,000
Mon, 22 July22:00$66 SUPER SIX [Bounty Turbo]$66$40,000
Mon, 22 July22:30$25 HYPER 5-MAX$25$25,000
Tue, 23 July0:00$88 Midnight Madness [Bounty Hyper]$88$40,000
Tue, 23 July1:05$10 Speed Racer POWER HOUR [10 BB]$10$5,000
Tue, 23 July1:15$25 Speed Racer POWER HOUR [10 BB]$25$7,000
Tue, 23 July1:25$50 Speed Racer POWER HOUR [10 BB]$50$6,000
Tue, 23 July1:35$100 Speed Racer POWER HOUR [10 BB]$100$7,000
Tue, 23 July1:45$200 Speed Racer POWER HOUR [10 BB]$200$7,000
Tue, 23 July13:30$10.80 Bounty Hunters 6-Max$10.80$35,000
Tue, 23 July14:05$10 Speed Racer POWER HOUR [10 BB]$10$12,500
Tue, 23 July14:15$25 Speed Racer POWER HOUR [10 BB]$25$12,500
Tue, 23 July14:25$50 Speed Racer POWER HOUR [10 BB]$50$12,500
Tue, 23 July14:35$100 Speed Racer POWER HOUR [10 BB]$100$10,000
Tue, 23 July14:45$200 Speed Racer POWER HOUR [10 BB]$200$12,500
Tue, 23 July16:30$525 Bounty Hunters HR [Deepstack]$525$200,000
Tue, 23 July16:30$54 Bounty Hunters Daily Main [Deepstack]$54$250,000
Tue, 23 July18:00$1,050 Tuesday Classic HR [Bounty Edition]$1,050$150,000
Tue, 23 July18:00$150 Tuesday Classic [Bounty Edition]$150$200,000
Tue, 23 July18:00$15 Mini Tuesday Classic [Bounty Edition]$15$85,000
Wed, 24 July1:05$10 Speed Racer POWER HOUR [10 BB]$10$5,000
Wed, 24 July1:15$25 Speed Racer POWER HOUR [10 BB]$25$7,000
Wed, 24 July1:25$50 Speed Racer POWER HOUR [10 BB]$50$6,000
Wed, 24 July1:35$100 Speed Racer POWER HOUR [10 BB]$100$7,000
Wed, 24 July1:45$200 Speed Racer POWER HOUR [10 BB]$200$7,000
Wed, 24 July13:30$10.80 Bounty Hunters 6-Max$10.80$35,000
Wed, 24 July14:05$10 Speed Racer POWER HOUR [10 BB]$10$12,500
Wed, 24 July14:15$25 Speed Racer POWER HOUR [10 BB]$25$12,500
Wed, 24 July14:25$50 Speed Racer POWER HOUR [10 BB]$50$12,500
Wed, 24 July14:35$100 Speed Racer POWER HOUR [10 BB]$100$10,000
Wed, 24 July14:45$200 Speed Racer POWER HOUR [10 BB]$200$12,500
Wed, 24 July16:30$525 Bounty Hunters HR [Double Stack]$525$200,000
Wed, 24 July16:30$54 Bounty Hunters Daily Main [Double Stack]$54$250,000
Wed, 24 July18:00$1,050 Wednesday Wonderbox HR [Mystery Bounty]$1,050$200,000
Wed, 24 July18:00$150 Wednesday Wonderbox [Mystery Bounty]$150$400,000
Wed, 24 July18:00$15 Mini Wednesday Wonderbox [Mystery Bounty]$15$200,000
Thu, 25 July1:05$10 Speed Racer POWER HOUR [10 BB]$10$5,000
Thu, 25 July1:15$25 Speed Racer POWER HOUR [10 BB]$25$7,000
Thu, 25 July1:25$50 Speed Racer POWER HOUR [10 BB]$50$6,000
Thu, 25 July1:35$100 Speed Racer POWER HOUR [10 BB]$100$7,000
Thu, 25 July1:45$200 Speed Racer POWER HOUR [10 BB]$200$7,000
Thu, 25 July13:30$10.80 Bounty Hunters 6-Max$10.80$35,000
Thu, 25 July14:05$10 Speed Racer POWER HOUR [10 BB]$10$12,500
Thu, 25 July14:15$25 Speed Racer POWER HOUR [10 BB]$25$12,500
Thu, 25 July14:25$50 Speed Racer POWER HOUR [10 BB]$50$12,500
Thu, 25 July14:35$100 Speed Racer POWER HOUR [10 BB]$100$10,000
Thu, 25 July14:45$200 Speed Racer POWER HOUR [10 BB]$200$12,500
Thu, 25 July16:30$525 Bounty Hunters HR [Classic]$525$300,000
Thu, 25 July16:30$54 Bounty Hunters Daily Main [Classic]$54$250,000
Thu, 25 July18:00$1,050 Thursday Throwdown HR$1,050$300,000
Thu, 25 July18:00$150 Thursday Throwdown$150$200,000
Thu, 25 July18:00$15 Mini Thursday Throwdown$15$85,000
Fri, 26 July1:05$10 Speed Racer POWER HOUR [10 BB]$10$5,000
Fri, 26 July1:15$25 Speed Racer POWER HOUR [10 BB]$25$7,000
Fri, 26 July1:25$50 Speed Racer POWER HOUR [10 BB]$50$6,000
Fri, 26 July1:35$100 Speed Racer POWER HOUR [10 BB]$100$7,000
Fri, 26 July1:45$200 Speed Racer POWER HOUR [10 BB]$200$7,000
Fri, 26 July13:30$10.80 Furious Friday 5-Max$10.80$30,000
Fri, 26 July14:05$10 Speed Racer POWER HOUR [10 BB]$10$12,500
Fri, 26 July14:15$25 Speed Racer POWER HOUR [10 BB]$25$12,500
Fri, 26 July14:25$50 Speed Racer POWER HOUR [10 BB]$50$12,500
Fri, 26 July14:35$100 Speed Racer POWER HOUR [10 BB]$100$10,000
Fri, 26 July14:45$200 Speed Racer POWER HOUR [10 BB]$200$12,500
Fri, 26 July16:30$525 Bounty Hunters HR [Ultradeep Turbo]$525$100,000
Fri, 26 July16:30$54 Bounty Hunters Daily Main [Ultradeep Turbo]$54$150,000
Fri, 26 July18:00$1,050 Friday Night Fight HR [6-Max]$1,050$150,000
Fri, 26 July18:00$150 Friday Night Fight [6-Max]$150$125,000
Fri, 26 July18:00$15 Mini Friday Night Fight [6-Max]$15$75,000
Sat, 27 July1:05$10 Speed Racer POWER HOUR [10 BB]$10$5,000
Sat, 27 July1:15$25 Speed Racer POWER HOUR [10 BB]$25$7,000
Sat, 27 July1:25$50 Speed Racer POWER HOUR [10 BB]$50$6,000
Sat, 27 July1:35$100 Speed Racer POWER HOUR [10 BB]$100$7,000
Sat, 27 July1:45$200 Speed Racer POWER HOUR [10 BB]$200$7,000
Sat, 27 July13:30$10.80 Saturday Showdown 7-Max$10.80$40,000
Sat, 27 July14:05$10 Speed Racer POWER HOUR [10 BB]$10$12,500
Sat, 27 July14:15$25 Speed Racer POWER HOUR [10 BB]$25$12,500
Sat, 27 July14:25$50 Speed Racer POWER HOUR [10 BB]$50$12,500
Sat, 27 July14:35$100 Speed Racer POWER HOUR [10 BB]$100$10,000
Sat, 27 July14:45$200 Speed Racer POWER HOUR [10 BB]$200$12,500
Sat, 27 July16:30$525 Bounty Hunters HR [Big Bounties]$525$200,000
Sat, 27 July16:30$54 Bounty Hunters Daily Main [Big Bounties]$54$250,000
Sat, 27 July18:00$1,050 Saturday Secret KO HR [Mystery Bounty]$1,050$250,000
Sat, 27 July18:00$150 Saturday Secret KO [Mystery Bounty]$150$500,000
Sat, 27 July18:00$15 Mini Saturday Secret KO [Mystery Bounty]$15$250,000
Sun, 28 July1:05$10 Speed Racer POWER HOUR [10 BB]$10$5,000
Sun, 28 July1:15$25 Speed Racer POWER HOUR [10 BB]$25$7,000
Sun, 28 July1:25$50 Speed Racer POWER HOUR [10 BB]$50$6,000
Sun, 28 July1:35$100 Speed Racer POWER HOUR [10 BB]$100$7,000
Sun, 28 July1:45$200 Speed Racer POWER HOUR [10 BB]$200$7,000
Sun, 28 July12:30$215 Sunday Bounty Blast-Off$215$35,000
Sun, 28 July12:30$25 Sunday Bounty Blast-Off$25$100,000
Sun, 28 July13:30$10.80 Sunday Bounty Seven-Max$10.80$50,000
Sun, 28 July13:30$108 Sunday Bounty Seven-Max$108$70,000
Sun, 28 July14:05$10 Speed Racer POWER HOUR [10 BB]$10$12,500
Sun, 28 July14:15$25 Speed Racer POWER HOUR [10 BB]$25$12,500
Sun, 28 July14:25$50 Speed Racer POWER HOUR [10 BB]$50$12,500
Sun, 28 July14:30$840 Sunday Bounty Warm-Up HR$840$75,000
Sun, 28 July14:30$88 Sunday Bounty Warm-Up$88$175,000
Sun, 28 July14:35$100 Speed Racer POWER HOUR [10 BB]$100$10,000
Sun, 28 July14:45$200 Speed Racer POWER HOUR [10 BB]$200$12,500
Sun, 28 July15:30$44 Sunday Bounty Forty Stack$44$200,000
Sun, 28 July16:30$525 Bounty Hunters HR Main Event, $1M GTD$525$1,000,000
Sun, 28 July16:30$54 Bounty Hunters Sunday Main Event$54$500,000
Sun, 28 July17:30$215 Sunday Bounty Big Game$215$350,000
Sun, 28 July17:30$21.60 Sunday Bounty Big Game$21.60$200,000
Sun, 28 July17:40$215 Sunday Omaholic Big Game$215$50,000
Sun, 28 July19:00$1,050 Sunday HR Main Event [Bounty Edition]$1,050$300,000
Sun, 28 July19:30$320 GGMasters Bounty Special Edition$320$400,000
Sun, 28 July19:30$32 Sunday Bounty King$32$175,000
Sun, 28 July19:40$1,050 Sunday Omaholic Bounty HR$1,050$50,000
Sun, 28 July19:40$150 Sunday Omaholic Bounty Main$150$100,000
Sun, 28 July20:00$108 Sunday Showdown [Mystery Bounty]$108$400,000
Sun, 28 July20:00$15 Mini Showdown [Mystery Bounty]$15$250,000
Sun, 28 July21:00$1,050 Sunday HEATER HR [Bounty Turbo]$1,050$75,000
Sun, 28 July21:00$215 Sunday HEATER [Bounty Turbo]$215$125,000
Sun, 28 July21:00$25 Sunday Mini HEATER [Bounty Turbo]$25$100,000
Sun, 28 July22:30$77 LUCKY SEVENS [Bounty Turbo]$77$125,000
Sun, 28 July23:30$215 Sunday Last Call [Bounty Hyper]$215$60,000
Mon, 29 July0:00$88 Midnight Madness [Bounty Hyper]$88$40,000
Mon, 29 July1:05$10 Speed Racer POWER HOUR [10 BB]$10$5,000
Mon, 29 July1:15$25 Speed Racer POWER HOUR [10 BB]$25$7,000
Mon, 29 July1:25$50 Speed Racer POWER HOUR [10 BB]$50$6,000
Mon, 29 July1:35$100 Speed Racer POWER HOUR [10 BB]$100$7,000
Mon, 29 July1:45$200 Speed Racer POWER HOUR [10 BB]$200$7,000
Mon, 29 July12:30$25 Bounty Blast-Off$25$50,000
Mon, 29 July13:30$10.80 Monday Hangover [Variable Levels]$10.80$30,000
Mon, 29 July14:05$10 Speed Racer POWER HOUR [10 BB]$10$12,500
Mon, 29 July14:15$25 Speed Racer POWER HOUR [10 BB]$25$12,500
Mon, 29 July14:25$50 Speed Racer POWER HOUR [10 BB]$50$12,500
Mon, 29 July14:30$88 Bounty Warm-Up$88$60,000
Mon, 29 July14:35$100 Speed Racer POWER HOUR [10 BB]$100$10,000
Mon, 29 July14:45$200 Speed Racer POWER HOUR [10 BB]$200$12,500
Mon, 29 July15:30$44 Bounty Forty Stack$44$80,000
Mon, 29 July16:30$525 Bounty Hunters HR [6-Max]$525$300,000
Mon, 29 July16:30$54 Bounty Hunters Daily Main [6-Max]$54$250,000
Mon, 29 July17:30$215 Bounty Big Game$215$150,000
Mon, 29 July17:30$25 Bounty Big Game$25$100,000
Mon, 29 July18:00$1,050 Monday Monster Stack HR [Bounty Edition]$1,050$200,000
Mon, 29 July18:00$150 Monday Monster Stack [Bounty Edition]$150$150,000
Mon, 29 July18:00$15 Mini Monday Monster Stack [Bounty Edition]$15$75,000
Mon, 29 July18:30Mystery MILLION$ Main Event, $4M GTD [Day 2]$108$4,000,000
Mon, 29 July19:30$32 Bounty King$32$70,000
Mon, 29 July19:40$525 Omaholic Bounty Fifty Stack$525$12,500
Mon, 29 July19:40$54 Omaholic Bounty Fifty Stack$54$15,000
Mon, 29 July21:00$215 Daily HEATER [Bounty Turbo]$215$50,000
Mon, 29 July22:00$66 SUPER SIX [Bounty Turbo]$66$40,000
Mon, 29 July22:30$25 HYPER 5-MAX$25$25,000
Tue, 30 July0:00$88 Midnight Madness [Bounty Hyper]$88$40,000
Tue, 30 July1:05$10 Speed Racer POWER HOUR [10 BB]$10$5,000
Tue, 30 July1:15$25 Speed Racer POWER HOUR [10 BB]$25$7,000
Tue, 30 July1:25$50 Speed Racer POWER HOUR [10 BB]$50$6,000
Tue, 30 July1:35$100 Speed Racer POWER HOUR [10 BB]$100$7,000
Tue, 30 July1:45$200 Speed Racer POWER HOUR [10 BB]$200$7,000